Terminal Aerodrome Forecast
Issued by NWS Charleston, WV

Current Version | Previous Version | Graphics & Text | Print | Product List | Glossary On
Versions: 1 2 3 4 5 6 7 8 9 10 11 12 13 14 15 16 17 18 19 20 21 22 23
000
FTUS41 KRLX 020248 AAA
TAFPKB
TAF AMD
KPKB 020248Z 0203/0224 02005KT P6SM OVC015
     FM020600 35004KT 6SM BR OVC009
     FM020800 VRB03KT 4SM BR OVC003
     FM021000 VRB03KT 4SM BR OVC003
     FM021300 00000KT 5SM BR OVC008
     FM021500 00000KT 6SM BR OVC015=

USA.gov is the U.S. government's official web portal to all federal, state and local government web resources and services.